Time;durP1;ratioP1;P1;durP2;ratioP2;P2;SDS_P1;SDS_P2;PMS_P1;PMS_P2;Temp;Humidity;BMP_temperature;BMP_pressure;BME280_temperature;BME280_humidity;BME280_pressure;Samples;Min_cycle;Max_cycle;Signal;HPM_P1;HPM_P2
2021/11/16 00:01:36;;;;;;;;;20.00;7.50;;;;;9.60;69.05;102176.72;4926715;28;45463;-58
2021/11/16 00:04:02;;;;;;;;;16.75;13.50;;;;;9.61;68.62;102186.31;4923075;28;45504;-58
2021/11/16 00:06:28;;;;;;;;;16.75;13.00;;;;;9.60;69.22;102187.25;4923759;28;45401;-59
2021/11/16 00:08:53;;;;;;;;;14.00;10.25;;;;;9.61;69.25;102191.59;4923725;28;45254;-59
2021/11/16 00:11:19;;;;;;;;;19.75;13.75;;;;;9.60;69.23;102194.28;4925760;28;45311;-58
2021/11/16 00:13:45;;;;;;;;;14.25;13.50;;;;;9.59;69.37;102182.03;4925190;28;46043;-58
2021/11/16 00:16:11;;;;;;;;;16.75;15.00;;;;;9.56;69.00;102177.75;4922286;28;46458;-59
2021/11/16 00:18:37;;;;;;;;;21.75;14.25;;;;;9.52;69.31;102176.97;4924170;28;45507;-58
2021/11/16 00:21:05;;;;;;;;;18.00;12.00;;;;;9.50;69.74;102170.03;4924476;28;45414;-59
2021/11/16 00:23:35;;;;;;;;;17.50;13.25;;;;;9.51;69.52;102162.09;4922825;28;46383;-59
2021/11/16 00:26:03;;;;;;;;;15.50;13.00;;;;;9.52;69.79;102168.22;4935008;28;45491;-59
2021/11/16 00:28:29;;;;;;;;;21.50;17.50;;;;;9.49;69.54;102161.28;4932047;28;45390;-55
2021/11/16 00:30:54;;;;;;;;;19.75;14.25;;;;;9.49;69.76;102163.91;4927347;28;45787;-55
2021/11/16 00:33:22;;;;;;;;;20.00;15.00;;;;;9.45;69.87;102157.03;4922908;28;45482;-59
2021/11/16 00:35:48;;;;;;;;;16.75;12.50;;;;;9.44;70.20;102146.56;4922844;28;45237;-59
2021/11/16 00:38:16;;;;;;;;;21.75;17.50;;;;;9.44;70.09;102154.44;4922567;28;45201;-57
2021/11/16 00:40:43;;;;;;;;;13.75;12.50;;;;;9.41;69.98;102137.00;4927097;28;45453;-58
2021/11/16 00:43:09;;;;;;;;;17.00;14.00;;;;;9.41;70.24;102134.38;4921970;28;46129;-56
2021/11/16 00:45:37;;;;;;;;;19.50;14.00;;;;;9.41;69.96;102125.63;4925460;28;45311;-56
2021/11/16 00:48:04;;;;;;;;;21.50;15.25;;;;;9.41;70.17;102126.47;4925923;28;45384;-57
2021/11/16 00:50:30;;;;;;;;;16.50;15.25;;;;;9.43;70.20;102129.06;4926034;28;45531;-57
2021/11/16 00:52:55;;;;;;;;;22.75;15.25;;;;;9.42;69.85;102125.56;4925571;28;45487;-58
2021/11/16 00:55:21;;;;;;;;;23.25;15.25;;;;;9.40;70.44;102124.75;4925399;28;45303;-58
2021/11/16 00:57:47;;;;;;;;;29.25;19.25;;;;;9.42;70.58;102122.09;4927060;28;45590;-57
2021/11/16 01:00:15;;;;;;;;;20.00;14.00;;;;;9.45;70.61;102124.59;4945119;28;45385;-57
2021/11/16 01:02:41;;;;;;;;;14.50;13.50;;;;;9.47;70.12;102125.41;4943986;28;46269;-57
2021/11/16 01:05:07;;;;;;;;;20.25;16.00;;;;;9.49;70.23;102120.97;4945170;28;45436;-58
2021/11/16 01:07:33;;;;;;;;;15.50;14.25;;;;;9.48;70.22;102116.63;4943222;28;45329;-57
2021/11/16 01:09:59;;;;;;;;;17.75;11.50;;;;;9.43;70.23;102110.66;4944540;28;45233;-54
2021/11/16 01:12:25;;;;;;;;;15.75;14.50;;;;;9.42;69.97;102117.69;4944791;28;45952;-57
2021/11/16 01:14:52;;;;;;;;;17.25;13.00;;;;;9.43;70.31;102115.91;4945032;28;45349;-57
2021/11/16 01:17:18;;;;;;;;;23.00;15.50;;;;;9.43;69.88;102114.13;4943769;28;45621;-57
2021/11/16 01:19:46;;;;;;;;;21.75;15.50;;;;;9.43;69.84;102119.41;4944977;28;45570;-58
2021/11/16 01:22:12;;;;;;;;;19.25;13.25;;;;;9.45;70.07;102114.06;4944483;28;45450;-59
2021/11/16 01:24:39;;;;;;;;;23.25;13.50;;;;;9.44;70.34;102107.97;4943945;28;45188;-58
2021/11/16 01:27:07;;;;;;;;;14.00;11.00;;;;;9.49;69.89;102108.69;4945004;28;45208;-55
2021/11/16 01:29:36;;;;;;;;;22.75;16.00;;;;;9.53;70.28;102101.53;4944878;28;45414;-56
2021/11/16 01:32:01;;;;;;;;;20.00;12.00;;;;;9.57;69.50;102102.31;4944029;28;46174;-56
2021/11/16 01:34:30;;;;;;;;;13.00;11.50;;;;;9.60;69.82;102108.31;4944737;28;45224;-56
2021/11/16 01:36:56;;;;;;;;;17.00;16.00;;;;;9.61;69.32;102109.16;4944684;28;45267;-58
2021/11/16 01:39:23;;;;;;;;;13.00;11.25;;;;;9.59;69.42;102116.25;4950612;28;45403;-58
2021/11/16 01:41:49;;;;;;;;;20.50;14.25;;;;;9.61;69.27;102117.94;4944373;28;45373;-58
2021/11/16 01:44:14;;;;;;;;;15.25;12.00;;;;;9.60;69.42;102113.56;4944226;28;45473;-57
2021/11/16 01:46:40;;;;;;;;;21.50;14.00;;;;;9.61;69.18;102115.28;4944048;28;45403;-57
2021/11/16 01:49:08;;;;;;;;;21.75;15.25;;;;;9.57;69.31;102112.84;4944746;28;45354;-58
2021/11/16 01:51:34;;;;;;;;;8.75;8.25;;;;;9.56;69.42;102113.72;4944319;28;45398;-56
2021/11/16 01:54:02;;;;;;;;;20.75;13.25;;;;;9.56;69.09;102122.50;4943342;28;45300;-58
2021/11/16 01:56:34;;;;;;;;;9.50;7.75;;;;;9.53;68.98;102117.31;4943989;28;45381;-56
2021/11/16 01:59:00;;;;;;;;;14.75;11.50;;;;;9.51;69.15;102125.25;4944316;28;45359;-56
2021/11/16 02:01:30;;;;;;;;;14.50;13.50;;;;;9.45;69.45;102122.81;4943635;28;45206;-58
2021/11/16 02:03:56;;;;;;;;;18.75;14.25;;;;;9.42;69.17;102114.19;4943912;28;45577;-57
2021/11/16 02:06:30;;;;;;;;;15.75;13.25;;;;;9.45;69.65;102117.56;4944272;28;45340;-56
2021/11/16 02:08:58;;;;;;;;;17.00;12.25;;;;;9.46;69.37;102107.91;4943841;28;45677;-56
2021/11/16 02:11:24;;;;;;;;;17.25;13.75;;;;;9.49;69.04;102105.19;4944090;28;45372;-57
2021/11/16 02:13:50;;;;;;;;;15.00;11.50;;;;;9.54;68.97;102105.03;4943520;28;45327;-55
2021/11/16 02:16:16;;;;;;;;;19.25;14.25;;;;;9.57;69.36;102105.81;4939477;28;45385;-56
2021/11/16 02:18:43;;;;;;;;;20.75;12.75;;;;;9.61;69.23;102102.13;4933840;28;45427;-59
2021/11/16 02:21:09;;;;;;;;;20.25;13.75;;;;;9.65;69.41;102109.03;4934839;28;45745;-58
2021/11/16 02:23:38;;;;;;;;;17.50;11.75;;;;;9.66;69.27;102104.63;4933265;28;45402;-58
2021/11/16 02:26:04;;;;;;;;;21.00;14.00;;;;;9.68;68.99;102105.44;4935968;28;45407;-57
2021/11/16 02:28:29;;;;;;;;;16.25;12.25;;;;;9.68;69.07;102100.16;4934488;28;45327;-57
2021/11/16 02:30:55;;;;;;;;;25.00;14.00;;;;;9.65;69.23;102102.91;4938740;28;46114;-58
2021/11/16 02:33:21;;;;;;;;;19.50;13.75;;;;;9.63;69.06;102099.44;4936530;28;45323;-58
2021/11/16 02:35:48;;;;;;;;;13.75;9.50;;;;;9.61;68.80;102101.28;4940568;28;45354;-57
2021/11/16 02:38:14;;;;;;;;;29.00;17.25;;;;;9.63;69.02;102104.72;4935273;28;45414;-58
2021/11/16 02:40:40;;;;;;;;;21.50;14.25;;;;;9.64;68.96;102101.19;4941972;28;46502;-57
2021/11/16 02:43:07;;;;;;;;;20.50;12.50;;;;;9.65;68.76;102103.78;4935591;28;45487;-58
2021/11/16 02:45:32;;;;;;;;;19.50;12.50;;;;;9.64;68.79;102107.31;4939834;28;45443;-57
2021/11/16 02:47:58;;;;;;;;;19.00;14.00;;;;;9.64;69.25;102107.31;4936862;28;45362;-57
2021/11/16 02:50:24;;;;;;;;;15.25;12.75;;;;;9.63;69.38;102104.72;4937808;28;45513;-57
2021/11/16 02:52:51;;;;;;;;;17.00;12.00;;;;;9.61;69.27;102093.38;4934728;28;45410;-58
2021/11/16 02:55:17;;;;;;;;;18.75;11.00;;;;;9.63;68.99;102097.69;4935148;28;45331;-57
2021/11/16 02:57:44;;;;;;;;;16.00;15.00;;;;;9.64;68.23;102094.16;4935019;28;45248;-58
2021/11/16 03:00:14;;;;;;;;;13.00;11.25;;;;;9.57;68.75;102097.06;4935804;28;46311;-57
2021/11/16 03:02:46;;;;;;;;;21.75;12.00;;;;;9.50;69.06;102092.00;4934603;28;45247;-56
2021/11/16 03:05:11;;;;;;;;;13.25;9.25;;;;;9.53;68.73;102085.75;4934977;28;45463;-57
2021/11/16 03:07:44;;;;;;;;;17.00;12.75;;;;;9.57;69.15;102084.75;4934043;28;45449;-57
2021/11/16 03:10:10;;;;;;;;;16.75;13.50;;;;;9.61;68.54;102083.72;4934720;28;45463;-57
2021/11/16 03:12:36;;;;;;;;;19.75;12.25;;;;;9.62;68.70;102085.44;4934387;28;45531;-57
2021/11/16 03:15:03;;;;;;;;;13.25;11.25;;;;;9.64;68.84;102085.41;4934794;28;45514;-57
2021/11/16 03:17:29;;;;;;;;;22.00;19.00;;;;;9.64;68.90;102088.03;4937364;28;45252;-57
2021/11/16 03:19:54;;;;;;;;;12.50;10.25;;;;;9.62;68.32;102082.81;4934318;28;46016;-57
2021/11/16 03:22:24;;;;;;;;;13.00;12.00;;;;;9.63;69.13;102084.53;4934496;28;45263;-57
2021/11/16 03:24:50;;;;;;;;;28.00;16.00;;;;;9.64;69.35;102090.69;4934335;28;45336;-57
2021/11/16 03:27:17;;;;;;;;;13.50;11.50;;;;;9.61;69.05;102085.50;4934510;28;45402;-57
2021/11/16 03:29:47;;;;;;;;;14.75;9.00;;;;;9.59;68.81;102076.81;4934689;28;45401;-57
2021/11/16 03:32:16;;;;;;;;;18.50;13.00;;;;;9.58;69.21;102081.22;4935854;28;45378;-57
2021/11/16 03:34:43;;;;;;;;;20.00;16.75;;;;;9.57;68.77;102079.50;4936662;28;45372;-57
2021/11/16 03:37:10;;;;;;;;;14.50;12.25;;;;;9.57;69.10;102089.16;4935596;28;45253;-57
2021/11/16 03:39:36;;;;;;;;;15.50;14.00;;;;;9.54;69.11;102087.47;4936261;28;46472;-57
2021/11/16 03:42:02;;;;;;;;;19.00;15.00;;;;;9.50;69.23;102089.34;4936541;28;45249;-57
2021/11/16 03:44:27;;;;;;;;;17.75;13.50;;;;;9.47;69.54;102084.19;4935991;28;45437;-58
2021/11/16 03:46:53;;;;;;;;;22.75;16.00;;;;;9.48;69.67;102092.97;4938740;28;45369;-58
2021/11/16 03:49:19;;;;;;;;;24.50;14.50;;;;;9.46;69.28;102090.34;4934090;28;45337;-57
2021/11/16 03:51:46;;;;;;;;;24.00;17.25;;;;;9.44;70.04;102086.91;4935774;28;45429;-57
2021/11/16 03:54:13;;;;;;;;;19.00;15.75;;;;;9.44;69.61;102091.31;4933196;28;45382;-57
2021/11/16 03:56:39;;;;;;;;;20.00;14.00;;;;;9.43;70.16;102094.88;4936271;28;45453;-57
2021/11/16 03:59:05;;;;;;;;;28.00;16.00;;;;;9.41;70.11;102096.69;4933252;28;46452;-57
2021/11/16 04:01:31;;;;;;;;;14.50;13.50;;;;;9.38;69.77;102097.63;4935904;28;45440;-57
2021/11/16 04:03:59;;;;;;;;;15.00;7.25;;;;;9.36;69.79;102096.84;4931885;28;45182;-57
2021/11/16 04:06:25;;;;;;;;;28.50;17.50;;;;;9.35;70.11;102086.38;4935215;28;45316;-56
2021/11/16 04:08:50;;;;;;;;;24.00;16.75;;;;;9.37;70.53;102097.69;4932839;28;46151;-57
2021/11/16 04:11:16;;;;;;;;;23.75;17.00;;;;;9.35;70.50;102092.50;4918270;28;45271;-57
2021/11/16 04:13:44;;;;;;;;;22.25;16.50;;;;;9.33;70.19;102088.19;4936903;28;45306;-57
2021/11/16 04:16:09;;;;;;;;;27.50;13.50;;;;;9.32;70.28;102094.34;4934945;28;45457;-57
2021/11/16 04:18:35;;;;;;;;;24.50;17.00;;;;;9.29;70.45;102095.31;4932804;28;45370;-57
2021/11/16 04:21:01;;;;;;;;;20.25;16.75;;;;;9.28;70.33;102090.97;4935598;28;45301;-58
2021/11/16 04:23:27;;;;;;;;;18.50;17.00;;;;;9.30;70.52;102093.53;4933018;28;45439;-58
2021/11/16 04:25:54;;;;;;;;;17.50;15.25;;;;;9.30;70.34;102086.50;4935567;28;45407;-58
2021/11/16 04:28:21;;;;;;;;;22.75;15.25;;;;;9.31;70.15;102082.97;4933733;28;45373;-57
2021/11/16 04:30:47;;;;;;;;;16.75;16.50;;;;;9.33;69.92;102099.56;4936957;28;45271;-57
2021/11/16 04:33:15;;;;;;;;;21.00;16.00;;;;;9.35;70.35;102089.00;4918678;28;45513;-57
2021/11/16 04:35:42;;;;;;;;;23.75;16.75;;;;;9.34;70.26;102082.03;4938252;28;45361;-59
2021/11/16 04:38:10;;;;;;;;;19.25;15.75;;;;;9.33;69.97;102093.44;4933337;28;45415;-58
2021/11/16 04:40:41;;;;;;;;;18.00;15.75;;;;;9.31;69.96;102090.00;4941349;28;45321;-59
2021/11/16 04:43:10;;;;;;;;;24.75;17.50;;;;;9.32;70.52;102086.44;4934206;28;45307;-57
2021/11/16 04:45:38;;;;;;;;;20.75;17.25;;;;;9.32;70.31;102086.44;4934092;28;45386;-59
2021/11/16 04:48:11;;;;;;;;;19.50;16.25;;;;;9.34;70.12;102089.91;4933666;28;45501;-59
2021/11/16 05:03:49;;;;;;;;;26.75;14.75;;;;;9.39;70.79;102088.84;4933147;28;45462;-59
2021/11/16 05:06:15;;;;;;;;;26.75;15.50;;;;;9.40;70.24;102095.84;4934859;28;45410;-59
2021/11/16 05:08:44;;;;;;;;;24.25;16.75;;;;;9.39;70.07;102095.88;4932390;28;45405;-59
2021/11/16 05:11:10;;;;;;;;;21.75;17.50;;;;;9.37;70.09;102093.28;4933986;28;45485;-59
2021/11/16 05:13:37;;;;;;;;;23.25;14.25;;;;;9.39;70.32;102099.34;4933278;28;45458;-59
2021/11/16 05:16:05;;;;;;;;;18.50;12.50;;;;;9.42;70.16;102093.16;4934385;28;45359;-59
2021/11/16 05:18:30;;;;;;;;;21.75;17.25;;;;;9.42;70.55;102087.88;4934005;28;47650;-59
2021/11/16 05:20:56;;;;;;;;;21.75;15.50;;;;;9.41;70.26;102089.66;4935911;28;45658;-59
2021/11/16 05:23:21;;;;;;;;;16.00;12.25;;;;;9.41;70.37;102094.06;4935006;28;45398;-59
2021/11/16 05:25:51;;;;;;;;;24.00;17.25;;;;;9.43;70.53;102094.88;4937003;28;45499;-59
2021/11/16 05:28:18;;;;;;;;;23.75;15.00;;;;;9.44;70.36;102086.91;4932385;28;45416;-59
2021/11/16 05:30:43;;;;;;;;;23.50;13.25;;;;;9.46;70.67;102095.63;4936082;28;45312;-59
2021/11/16 05:33:09;;;;;;;;;19.50;14.50;;;;;9.50;69.87;102088.50;4937800;28;45466;-59
2021/11/16 05:35:34;;;;;;;;;22.00;15.25;;;;;9.50;69.98;102099.03;4940760;28;45382;-59
2021/11/16 05:38:00;;;;;;;;;31.25;16.75;;;;;9.50;70.20;102101.66;4935875;28;45427;-59
2021/11/16 05:40:26;;;;;;;;;18.25;16.25;;;;;9.50;70.52;102101.66;4939883;28;45422;-59
2021/11/16 05:42:52;;;;;;;;;25.75;17.75;;;;;9.46;69.87;102100.88;4937631;28;45510;-59
2021/11/16 05:45:18;;;;;;;;;23.00;15.25;;;;;9.46;69.90;102094.75;4940445;28;45208;-59
2021/11/16 05:47:44;;;;;;;;;20.50;19.00;;;;;9.49;70.06;102099.94;4935854;28;46554;-59
2021/11/16 05:50:11;;;;;;;;;25.50;20.25;;;;;9.47;70.10;102104.34;4936654;28;45495;-59
2021/11/16 05:52:37;;;;;;;;;23.25;18.25;;;;;9.47;69.97;102109.63;4937006;28;45519;-59
2021/11/16 05:55:07;;;;;;;;;32.75;19.25;;;;;9.47;70.13;102105.22;4939560;28;45475;-59
2021/11/16 05:57:33;;;;;;;;;28.50;19.75;;;;;9.45;70.21;102111.44;4938398;28;46498;-59
2021/11/16 05:59:58;;;;;;;;;23.25;18.75;;;;;9.43;70.58;102103.63;4935604;28;45349;-59
2021/11/16 06:02:24;;;;;;;;;25.00;18.25;;;;;9.46;70.94;102107.91;4937897;28;45160;-59
2021/11/16 06:04:49;;;;;;;;;27.25;16.00;;;;;9.44;70.51;102107.97;4919297;28;45290;-59
2021/11/16 06:07:15;;;;;;;;;21.00;15.25;;;;;9.41;70.75;102108.06;4934815;28;45327;-59
2021/11/16 06:09:42;;;;;;;;;33.75;22.00;;;;;9.38;70.56;102108.16;4937478;28;45284;-59
2021/11/16 06:12:09;;;;;;;;;28.00;20.75;;;;;9.39;70.84;102104.59;4935820;28;45345;-59
2021/11/16 06:14:35;;;;;;;;;22.75;18.25;;;;;9.41;70.99;102115.09;4939125;28;45558;-59
2021/11/16 06:17:01;;;;;;;;;23.25;18.00;;;;;9.43;71.51;102108.88;4936933;28;45395;-59
2021/11/16 06:19:29;;;;;;;;;23.50;17.75;;;;;9.41;71.01;102105.44;4938073;28;45260;-59
2021/11/16 06:21:55;;;;;;;;;29.00;26.25;;;;;9.37;71.24;102105.56;4935689;28;45563;-59
2021/11/16 06:24:21;;;;;;;;;20.50;14.25;;;;;9.33;70.16;102111.88;4935405;28;45683;-59
2021/11/16 06:26:47;;;;;;;;;26.25;18.50;;;;;9.32;70.44;102113.63;4935358;28;45385;-59
2021/11/16 06:29:12;;;;;;;;;19.50;14.75;;;;;9.34;70.64;102106.56;4936365;28;45508;-59
2021/11/16 06:31:38;;;;;;;;;27.50;18.75;;;;;9.35;71.22;102120.56;4934763;28;45381;-58
2021/11/16 06:34:05;;;;;;;;;24.75;19.25;;;;;9.34;71.36;102121.47;4937385;28;45574;-59
2021/11/16 06:36:35;;;;;;;;;24.25;17.75;;;;;9.32;71.35;102118.00;4934684;28;46306;-59
2021/11/16 06:39:11;;;;;;;;;17.50;16.25;;;;;9.33;71.49;102117.97;4938217;28;45457;-59
2021/11/16 06:41:37;;;;;;;;;24.50;20.75;;;;;9.37;71.06;102118.72;4936765;28;45443;-58
2021/11/16 06:44:04;;;;;;;;;23.00;17.25;;;;;9.37;71.05;102121.34;4939115;28;45662;-59
2021/11/16 06:46:31;;;;;;;;;18.00;17.00;;;;;9.37;71.84;102116.09;4938225;28;45473;-60
2021/11/16 06:49:00;;;;;;;;;24.00;19.25;;;;;9.39;71.48;102127.41;4935113;28;45371;-59
2021/11/16 06:51:26;;;;;;;;;28.00;20.00;;;;;9.39;71.18;102124.78;4932010;28;45402;-62
2021/11/16 06:53:52;;;;;;;;;19.50;16.00;;;;;9.35;71.35;102124.03;4934102;28;45407;-60
2021/11/16 06:56:23;;;;;;;;;26.25;21.50;;;;;9.32;71.30;102124.16;4931437;28;46460;-60
2021/11/16 06:58:49;;;;;;;;;26.25;22.25;;;;;9.34;71.61;102122.31;4935686;28;45362;-60
2021/11/16 07:01:14;;;;;;;;;24.75;19.25;;;;;9.32;71.52;102124.16;4936890;28;45701;-60
2021/11/16 07:03:48;;;;;;;;;31.00;16.00;;;;;9.29;71.66;102123.38;4935345;28;45456;-60
2021/11/16 07:06:14;;;;;;;;;27.25;16.50;;;;;9.24;71.73;102118.25;4935570;28;45487;-60
2021/11/16 07:08:41;;;;;;;;;25.00;19.25;;;;;9.26;71.73;102120.84;4934770;28;45320;-60
2021/11/16 07:11:13;;;;;;;;;24.25;19.50;;;;;9.25;71.82;102124.41;4918935;28;45330;-62
2021/11/16 07:14:03;;;;;;;;;29.75;18.75;;;;;9.27;72.03;102131.31;4934138;28;45232;-60
2021/11/16 07:16:36;;;;;;;;;22.00;20.00;;;;;9.28;72.12;102126.91;4937877;28;45543;-60
2021/11/16 07:19:04;;;;;;;;;34.50;18.25;;;;;9.27;71.81;102136.56;4941371;28;45477;-60
2021/11/16 07:21:51;;;;;;;;;27.50;21.00;;;;;9.27;71.30;102133.94;4942433;28;45338;-61
2021/11/16 07:24:24;;;;;;;;;22.25;17.50;;;;;9.26;71.82;102126.97;4942911;28;45417;-60
2021/11/16 07:27:07;;;;;;;;;22.50;20.75;;;;;9.25;71.47;102127.88;4942873;28;45439;-61
2021/11/16 07:29:44;;;;;;;;;19.75;17.25;;;;;9.25;71.54;102125.25;4943320;28;45355;-61
2021/11/16 07:32:17;;;;;;;;;29.25;22.25;;;;;9.26;71.87;102124.34;4942773;28;45269;-60
2021/11/16 07:34:44;;;;;;;;;20.00;16.50;;;;;9.28;71.61;102126.91;4942931;28;45352;-60
2021/11/16 07:37:17;;;;;;;;;21.00;17.25;;;;;9.31;71.21;102126.81;4942711;28;45497;-60
2021/11/16 07:40:01;;;;;;;;;30.00;20.50;;;;;9.32;71.14;102124.16;4953642;28;45326;-61
2021/11/16 07:42:34;;;;;;;;;22.75;16.50;;;;;9.37;71.14;102119.59;4931509;28;45256;-60
2021/11/16 07:45:25;;;;;;;;;25.00;14.25;;;;;9.39;70.46;102125.66;4941340;28;45416;-60
2021/11/16 07:48:01;;;;;;;;;26.00;18.75;;;;;9.41;70.65;102123.00;4942651;28;45363;-60
2021/11/16 07:50:30;;;;;;;;;24.50;17.75;;;;;9.46;70.32;102115.78;4943146;28;45275;-60
2021/11/16 07:53:18;;;;;;;;;26.00;19.50;;;;;9.51;70.21;102108.63;4939956;28;45445;-60
2021/11/16 07:55:53;;;;;;;;;30.00;17.25;;;;;9.52;70.41;102110.34;4936473;28;45223;-60
2021/11/16 07:58:21;;;;;;;;;26.25;18.50;;;;;9.54;70.73;102113.78;4938057;28;45658;-61
2021/11/16 08:00:49;;;;;;;;;24.50;18.00;;;;;9.58;70.42;102123.31;4933805;28;45486;-60
2021/11/16 08:03:22;;;;;;;;;25.50;17.75;;;;;9.64;70.21;102131.00;4933847;28;45350;-61
2021/11/16 08:05:59;;;;;;;;;23.00;17.50;;;;;9.68;69.14;102122.06;4934737;28;45278;-61
2021/11/16 08:08:39;;;;;;;;;20.50;15.50;;;;;9.70;69.20;102130.78;4934122;28;46280;-61
2021/11/16 08:11:18;;;;;;;;;24.75;18.25;;;;;9.72;69.05;102136.00;4915865;28;46533;-61
2021/11/16 08:14:07;;;;;;;;;24.50;22.00;;;;;9.74;69.04;102136.81;4934402;28;45303;-61
2021/11/16 08:17:00;;;;;;;;;32.25;23.00;;;;;9.74;69.31;102142.06;4929123;28;45354;-60
2021/11/16 08:19:35;;;;;;;;;18.50;17.25;;;;;9.76;68.75;102138.47;4941352;28;45388;-60
2021/11/16 08:22:11;;;;;;;;;15.25;12.00;;;;;9.76;67.80;102134.97;4942452;28;45443;-62
2021/11/16 08:24:40;;;;;;;;;19.00;13.25;;;;;9.74;68.22;102137.66;4942349;28;45409;-61
2021/11/16 08:27:12;;;;;;;;;18.00;14.00;;;;;9.76;68.13;102127.94;4942439;28;45425;-61
2021/11/16 08:29:40;;;;;;;;;18.50;15.25;;;;;9.81;68.26;102121.69;4942606;28;45452;-61
2021/11/16 08:32:14;;;;;;;;;18.25;17.25;;;;;9.86;68.39;102123.22;4942464;28;46367;-61
2021/11/16 08:35:01;;;;;;;;;16.75;13.00;;;;;9.91;67.12;102123.06;4942512;28;45344;-61
2021/11/16 08:37:37;;;;;;;;;23.00;18.50;;;;;9.92;67.64;102130.91;4942270;28;45499;-61
2021/11/16 08:40:06;;;;;;;;;23.00;14.50;;;;;9.95;66.85;102119.41;4952673;28;46455;-61
2021/11/16 08:42:38;;;;;;;;;31.75;29.75;;;;;9.95;67.04;102112.41;4942104;28;45449;-61
2021/11/16 08:45:10;;;;;;;;;23.00;19.00;;;;;10.02;66.85;102120.91;4942118;28;45236;-61
2021/11/16 08:47:39;;;;;;;;;23.50;20.00;;;;;10.06;67.44;102114.66;4942299;28;45402;-62
2021/11/16 08:50:13;;;;;;;;;24.00;19.50;;;;;10.06;66.42;102112.88;4942190;28;45404;-61
2021/11/16 08:52:38;;;;;;;;;21.75;18.25;;;;;10.08;66.41;102118.94;4942037;28;45168;-61
2021/11/16 08:55:09;;;;;;;;;19.25;14.25;;;;;10.09;66.11;102109.25;4941980;28;45346;-61
2021/11/16 08:57:37;;;;;;;;;19.25;13.75;;;;;10.10;66.57;102118.88;4942133;28;45544;-61
2021/11/16 09:00:25;;;;;;;;;16.25;14.25;;;;;10.08;66.76;102113.66;4941384;28;46099;-61
2021/11/16 09:03:11;;;;;;;;;15.25;13.25;;;;;10.10;66.44;102118.88;4941328;28;45287;-61
2021/11/16 09:05:43;;;;;;;;;22.00;19.25;;;;;10.14;66.91;102117.88;4942688;28;45256;-59
2021/11/16 09:08:22;;;;;;;;;19.75;18.00;;;;;10.18;66.95;102121.25;4945090;28;45258;-59
2021/11/16 09:10:52;;;;;;;;;30.75;18.00;;;;;10.21;66.59;102106.22;4945138;28;46001;-61
2021/11/16 09:13:21;;;;;;;;;27.25;19.25;;;;;10.23;66.86;102107.03;4945554;28;45252;-59
2021/11/16 09:16:03;;;;;;;;;27.25;22.00;;;;;10.23;67.06;102101.78;4945477;28;45236;-59
2021/11/16 09:18:39;;;;;;;;;26.50;20.25;;;;;10.22;66.44;102099.16;4945526;28;45446;-61
2021/11/16 09:21:26;;;;;;;;;21.00;18.50;;;;;10.24;66.89;102095.59;4945028;28;45462;-60
2021/11/16 09:24:07;;;;;;;;;23.50;20.75;;;;;10.26;66.68;102096.38;4944799;28;45406;-59
2021/11/16 09:26:47;;;;;;;;;32.00;24.25;;;;;10.26;66.76;102096.38;4945258;28;45244;-60
2021/11/16 09:29:17;;;;;;;;;24.00;21.75;;;;;10.26;66.85;102101.66;4945122;28;45461;-60
2021/11/16 09:31:52;;;;;;;;;21.75;19.00;;;;;10.26;67.00;102088.47;4944671;28;45363;-60
2021/11/16 09:34:18;;;;;;;;;23.25;21.50;;;;;10.28;67.08;102102.47;4944876;28;45309;-60
2021/11/16 09:36:52;;;;;;;;;33.25;25.50;;;;;10.32;67.04;102092.66;4944988;28;45362;-60
2021/11/16 09:39:25;;;;;;;;;24.75;20.50;;;;;10.32;66.61;102083.00;4952828;28;45355;-60
2021/11/16 09:41:58;;;;;;;;;30.00;19.00;;;;;10.35;66.99;102079.41;4947469;28;45411;-60
2021/11/16 09:44:27;;;;;;;;;20.75;18.00;;;;;10.41;66.71;102076.53;4944818;28;45279;-60
2021/11/16 09:46:53;;;;;;;;;24.25;20.00;;;;;10.46;66.28;102073.72;4944836;28;45408;-60
2021/11/16 09:49:28;;;;;;;;;24.00;21.00;;;;;10.47;66.06;102083.34;4944829;28;45284;-60
2021/11/16 09:51:56;;;;;;;;;23.25;16.25;;;;;10.54;66.02;102100.66;4944768;28;45414;-61
2021/11/16 09:54:23;;;;;;;;;21.25;17.75;;;;;10.55;66.34;102087.41;4944278;28;45272;-61
2021/11/16 09:57:08;;;;;;;;;29.75;23.50;;;;;10.55;65.91;102084.78;4944749;28;45303;-60
2021/11/16 09:59:37;;;;;;;;;21.25;16.25;;;;;10.56;65.81;102088.28;4944477;28;45617;-60
2021/11/16 10:02:03;;;;;;;;;28.00;20.00;;;;;10.60;65.93;102085.47;4944595;28;45336;-60
2021/11/16 10:04:34;;;;;;;;;21.50;18.00;;;;;10.59;65.37;102083.75;4940853;28;45264;-60
2021/11/16 10:07:00;;;;;;;;;24.50;19.00;;;;;10.59;65.83;102091.66;4944632;28;45362;-60
2021/11/16 10:09:26;;;;;;;;;19.25;14.75;;;;;10.56;65.57;102090.91;4944224;28;45482;-60
2021/11/16 10:11:53;;;;;;;;;23.25;17.75;;;;;10.55;65.48;102095.31;4944223;28;45912;-60
2021/11/16 10:14:21;;;;;;;;;21.50;15.75;;;;;10.56;65.83;102094.41;4944336;28;45235;-60
2021/11/16 10:16:48;;;;;;;;;18.50;16.00;;;;;10.54;65.58;102092.75;4944291;28;45285;-60
2021/11/16 10:19:14;;;;;;;;;17.75;15.50;;;;;10.54;65.64;102095.38;4944043;28;45331;-60
2021/11/16 10:21:40;;;;;;;;;54.25;41.50;;;;;10.51;65.50;102090.25;4944103;28;45971;-60
2021/11/16 10:24:30;;;;;;;;;17.75;14.75;;;;;10.48;65.27;102088.56;4943692;28;45364;-60
2021/11/16 10:27:01;;;;;;;;;22.00;16.50;;;;;10.48;65.44;102085.91;4944032;28;45276;-60
2021/11/16 10:29:26;;;;;;;;;19.50;15.00;;;;;10.48;65.54;102079.78;4944457;28;45478;-60
2021/11/16 10:31:52;;;;;;;;;19.50;15.50;;;;;10.47;65.67;102086.84;4943874;28;45442;-60
2021/11/16 10:34:18;;;;;;;;;18.75;16.00;;;;;10.47;65.18;102081.56;4943857;28;45244;-60
2021/11/16 10:36:45;;;;;;;;;30.00;17.00;;;;;10.42;65.06;102088.78;4943908;28;45272;-60
2021/11/16 10:39:11;;;;;;;;;17.25;14.00;;;;;10.40;65.41;102087.97;4950842;28;45438;-60
2021/11/16 10:41:39;;;;;;;;;25.25;18.25;;;;;10.38;65.56;102092.44;4948453;28;46176;-60
2021/11/16 10:44:06;;;;;;;;;19.75;15.00;;;;;10.39;65.65;102094.16;4943837;28;45444;-60
2021/11/16 10:46:43;;;;;;;;;26.25;16.75;;;;;10.44;65.74;102092.25;4943861;28;45435;-60
2021/11/16 10:49:14;;;;;;;;;23.00;17.50;;;;;10.49;65.54;102086.78;4944235;28;45244;-60
2021/11/16 10:51:43;;;;;;;;;23.50;14.00;;;;;10.49;65.09;102085.00;4943805;28;45335;-60
2021/11/16 10:54:12;;;;;;;;;21.25;12.00;;;;;10.53;65.42;102091.03;4943361;28;45415;-60
2021/11/16 10:56:40;;;;;;;;;19.75;14.00;;;;;10.54;65.24;102090.13;4943256;28;45250;-60
2021/11/16 10:59:13;;;;;;;;;20.50;18.50;;;;;10.51;65.33;102084.97;4936895;28;45522;-60
2021/11/16 11:01:51;;;;;;;;;22.00;13.75;;;;;10.44;65.97;102080.84;4920484;28;47316;-60
2021/11/16 11:04:20;;;;;;;;;19.75;14.00;;;;;10.41;65.79;102081.78;4917483;28;45576;-60
2021/11/16 11:06:49;;;;;;;;;19.50;14.00;;;;;10.41;65.23;102079.16;4940310;28;45471;-60
2021/11/16 11:09:16;;;;;;;;;17.50;15.50;;;;;10.44;65.75;102075.56;4938279;28;45628;-60
2021/11/16 11:11:47;;;;;;;;;17.25;13.75;;;;;10.48;65.88;102078.03;4934843;28;46431;-60
2021/11/16 11:14:18;;;;;;;;;19.50;12.00;;;;;10.55;65.12;102074.25;4940263;28;45638;-61
2021/11/16 11:16:55;;;;;;;;;15.00;12.75;;;;;10.59;65.11;102067.09;4941917;28;45343;-61
2021/11/16 11:19:25;;;;;;;;;10.75;9.00;;;;;10.63;65.29;102060.78;4926713;28;45354;-60
2021/11/16 11:21:58;;;;;;;;;13.00;11.00;;;;;10.66;65.20;102063.28;4941746;28;46311;-65
2021/11/16 11:24:30;;;;;;;;;10.25;10.25;;;;;10.67;64.76;102059.75;4941947;28;45325;-60
2021/11/16 11:27:00;;;;;;;;;11.00;10.00;;;;;10.70;64.56;102051.72;4943030;28;45379;-61
2021/11/16 11:29:47;;;;;;;;;14.25;11.00;;;;;10.73;64.19;102051.59;4941639;28;45501;-61
2021/11/16 11:32:19;;;;;;;;;13.50;10.00;;;;;10.76;64.38;102045.34;4942859;28;45286;-61
2021/11/16 11:35:07;;;;;;;;;13.75;12.00;;;;;10.78;64.84;102040.88;4942866;28;45458;-61
2021/11/16 11:37:36;;;;;;;;;14.75;12.75;;;;;10.83;64.75;102034.50;4928644;28;45383;-61